Time;durP1;ratioP1;P1;durP2;ratioP2;P2;SDS_P1;SDS_P2;PMS_P1;PMS_P2;Temp;Humidity;BMP_temperature;BMP_pressure;BME280_temperature;BME280_humidity;BME280_pressure;Samples;Min_cycle;Max_cycle;Signal;HPM_P1;HPM_P2
2022/10/02 00:02:23;;;;;;;18.98;3.97;;;;;;;;;;5039070;28;20033;-64
2022/10/02 00:05:03;;;;;;;18.23;2.90;;;;;;;;;;5013524;28;20032;-65
2022/10/02 00:07:33;;;;;;;19.98;2.83;;;;;;;;;;5016041;28;20040;-64
2022/10/02 00:10:05;;;;;;;30.40;3.67;;;;;;;;;;5039506;28;20199;-64
2022/10/02 00:12:30;;;;;;;30.48;4.15;;;;;;;;;;5038048;28;20051;-65
2022/10/02 00:15:11;;;;;;;27.48;3.88;;;;;;;;;;5028633;28;20104;-66
2022/10/02 00:17:39;;;;;;;36.53;4.22;;;;;;;;;;5040786;28;20054;-65
2022/10/02 00:20:15;;;;;;;24.63;3.28;;;;;;;;;;5021433;28;20041;-66
2022/10/02 00:22:50;;;;;;;27.35;4.10;;;;;;;;;;5039727;28;20067;-64
2022/10/02 00:25:15;;;;;;;28.35;3.97;;;;;;;;;;5037618;28;20128;-65
2022/10/02 00:27:56;;;;;;;27.17;4.10;;;;;;;;;;5056348;28;20033;-65
2022/10/02 00:30:26;;;;;;;26.55;4.63;;;;;;;;;;5015579;28;20032;-64
2022/10/02 00:33:10;;;;;;;30.55;4.30;;;;;;;;;;5039416;28;20048;-66
2022/10/02 00:35:38;;;;;;;28.52;4.78;;;;;;;;;;5039546;28;20028;-64
2022/10/02 00:38:24;;;;;;;25.38;4.03;;;;;;;;;;5040343;28;20029;-64
2022/10/02 00:41:00;;;;;;;26.77;4.28;;;;;;;;;;5039988;28;20082;-65
2022/10/02 00:43:39;;;;;;;26.65;4.32;;;;;;;;;;5039161;28;20113;-65
2022/10/02 00:46:04;;;;;;;30.88;4.63;;;;;;;;;;5040592;28;20120;-64
2022/10/02 00:48:45;;;;;;;28.33;4.72;;;;;;;;;;5041147;28;21205;-65
2022/10/02 00:51:10;;;;;;;27.98;4.45;;;;;;;;;;5039213;28;20507;-65
2022/10/02 00:53:42;;;;;;;24.23;4.05;;;;;;;;;;5039436;28;20031;-66
2022/10/02 00:56:23;;;;;;;21.83;3.50;;;;;;;;;;5036267;28;22366;-66
2022/10/02 00:59:14;;;;;;;17.67;3.10;;;;;;;;;;5036642;28;20037;-65
2022/10/02 01:01:48;;;;;;;30.83;4.03;;;;;;;;;;5012769;28;20064;-65
2022/10/02 01:04:16;;;;;;;26.92;4.53;;;;;;;;;;5036391;28;20075;-67
2022/10/02 01:06:41;;;;;;;30.13;4.22;;;;;;;;;;5036270;28;20028;-66
2022/10/02 01:09:06;;;;;;;23.45;4.28;;;;;;;;;;5037511;28;20455;-65
2022/10/02 01:11:32;;;;;;;27.75;4.07;;;;;;;;;;5051610;28;20055;-65
2022/10/02 01:13:59;;;;;;;38.42;4.63;;;;;;;;;;5041856;28;20036;-65
2022/10/02 01:16:27;;;;;;;25.17;3.53;;;;;;;;;;5041016;28;20567;-66
2022/10/02 01:18:52;;;;;;;28.65;4.15;;;;;;;;;;5039970;28;20207;-66
2022/10/02 01:21:39;;;;;;;25.42;4.25;;;;;;;;;;5040368;28;20028;-66
2022/10/02 01:24:04;;;;;;;25.38;4.00;;;;;;;;;;5040766;28;20404;-66
2022/10/02 01:26:30;;;;;;;25.45;4.60;;;;;;;;;;5041689;28;20068;-65
2022/10/02 01:28:58;;;;;;;21.48;3.38;;;;;;;;;;5039796;28;20036;-66
2022/10/02 01:31:25;;;;;;;25.60;4.10;;;;;;;;;;5041513;28;21173;-66
2022/10/02 01:33:51;;;;;;;22.00;4.50;;;;;;;;;;5040205;28;20036;-66
2022/10/02 01:36:16;;;;;;;21.95;3.20;;;;;;;;;;5039841;28;20036;-65
2022/10/02 01:38:42;;;;;;;21.85;3.63;;;;;;;;;;5040919;28;20089;-66
2022/10/02 01:41:09;;;;;;;20.83;3.78;;;;;;;;;;5040605;28;20039;-65
2022/10/02 01:43:35;;;;;;;27.48;3.78;;;;;;;;;;5041093;28;20347;-66
2022/10/02 01:46:01;;;;;;;20.92;3.25;;;;;;;;;;5026266;28;20063;-66
2022/10/02 01:48:38;;;;;;;20.75;4.20;;;;;;;;;;5040293;28;20827;-65
2022/10/02 01:51:12;;;;;;;29.77;4.47;;;;;;;;;;5040189;28;20060;-66
2022/10/02 01:53:43;;;;;;;26.15;4.13;;;;;;;;;;5039793;28;20036;-66
2022/10/02 01:56:17;;;;;;;24.05;4.18;;;;;;;;;;5040725;28;20059;-65
2022/10/02 01:58:47;;;;;;;23.85;3.53;;;;;;;;;;5040327;28;20032;-64
2022/10/02 02:01:30;;;;;;;23.88;3.30;;;;;;;;;;5043141;28;20110;-65
2022/10/02 02:03:58;;;;;;;23.88;4.18;;;;;;;;;;5018473;28;20028;-65
2022/10/02 02:06:46;;;;;;;25.63;3.72;;;;;;;;;;5042474;28;20495;-65
2022/10/02 02:09:17;;;;;;;35.63;3.97;;;;;;;;;;5043225;28;20228;-65
2022/10/02 02:11:51;;;;;;;25.97;3.93;;;;;;;;;;5042651;28;20806;-65
2022/10/02 02:14:22;;;;;;;22.25;3.88;;;;;;;;;;5042262;28;20120;-65
2022/10/02 02:16:49;;;;;;;30.50;4.30;;;;;;;;;;5042789;28;21885;-65
2022/10/02 02:19:17;;;;;;;28.30;4.28;;;;;;;;;;5041600;28;20047;-64
2022/10/02 02:22:04;;;;;;;23.05;4.45;;;;;;;;;;5041937;28;20051;-65
2022/10/02 02:24:33;;;;;;;29.55;4.13;;;;;;;;;;5042916;28;20039;-65
2022/10/02 02:27:00;;;;;;;19.50;3.58;;;;;;;;;;5041454;28;20036;-64
2022/10/02 02:29:26;;;;;;;23.02;3.45;;;;;;;;;;5041827;28;20131;-65
2022/10/02 02:31:55;;;;;;;22.23;3.83;;;;;;;;;;5041283;28;20551;-65
2022/10/02 02:34:32;;;;;;;26.27;4.50;;;;;;;;;;5025253;28;20097;-65
2022/10/02 02:37:03;;;;;;;21.55;3.00;;;;;;;;;;5042293;28;20036;-65
2022/10/02 02:39:44;;;;;;;24.00;3.15;;;;;;;;;;5017334;28;20730;-65
2022/10/02 02:42:15;;;;;;;27.15;4.22;;;;;;;;;;5042008;28;20036;-65
2022/10/02 02:44:56;;;;;;;18.77;3.85;;;;;;;;;;5041642;28;20147;-64
2022/10/02 02:47:25;;;;;;;20.00;3.37;;;;;;;;;;5041238;28;20093;-65
2022/10/02 02:50:09;;;;;;;31.20;4.57;;;;;;;;;;5041249;28;20036;-66
2022/10/02 02:52:34;;;;;;;17.58;3.15;;;;;;;;;;5041161;28;20052;-64
2022/10/02 02:55:03;;;;;;;23.77;3.38;;;;;;;;;;5042645;28;20029;-65
2022/10/02 02:57:31;;;;;;;31.48;4.35;;;;;;;;;;5017087;28;20040;-65
2022/10/02 03:00:01;;;;;;;31.23;4.13;;;;;;;;;;5042206;28;20166;-65
2022/10/02 03:02:26;;;;;;;22.58;3.35;;;;;;;;;;5029379;28;20063;-65
2022/10/02 03:04:51;;;;;;;25.67;3.58;;;;;;;;;;5033841;28;20043;-66
2022/10/02 03:07:17;;;;;;;25.58;3.35;;;;;;;;;;5029942;28;20767;-65
2022/10/02 03:09:56;;;;;;;19.08;3.38;;;;;;;;;;5042472;28;20032;-65
2022/10/02 03:12:45;;;;;;;15.43;3.28;;;;;;;;;;5043432;28;20040;-66
2022/10/02 03:15:13;;;;;;;27.15;3.75;;;;;;;;;;5028527;27;20043;-65
2022/10/02 03:17:56;;;;;;;23.27;4.18;;;;;;;;;;5040222;28;20036;-66
2022/10/02 03:20:40;;;;;;;30.15;4.25;;;;;;;;;;5040853;28;20067;-66
2022/10/02 03:23:14;;;;;;;20.85;3.53;;;;;;;;;;5056345;28;20840;-65
2022/10/02 03:25:47;;;;;;;28.38;4.72;;;;;;;;;;5041347;28;20098;-66
2022/10/02 03:28:12;;;;;;;33.53;4.15;;;;;;;;;;5041733;28;20032;-66
2022/10/02 03:30:38;;;;;;;23.25;3.80;;;;;;;;;;5040729;28;20032;-66
2022/10/02 03:33:04;;;;;;;24.45;4.10;;;;;;;;;;5040963;28;20036;-65
2022/10/02 03:35:30;;;;;;;23.70;3.45;;;;;;;;;;5041013;28;20028;-66
2022/10/02 03:37:58;;;;;;;29.83;4.60;;;;;;;;;;5040013;28;20051;-65
2022/10/02 03:40:23;;;;;;;20.50;3.40;;;;;;;;;;5026962;28;20168;-66
2022/10/02 03:42:50;;;;;;;31.02;4.10;;;;;;;;;;5040796;28;20033;-66
2022/10/02 03:45:16;;;;;;;19.55;3.42;;;;;;;;;;5040820;28;20066;-66
2022/10/02 03:47:42;;;;;;;21.63;3.53;;;;;;;;;;5040780;28;20036;-66
2022/10/02 03:50:07;;;;;;;20.10;3.38;;;;;;;;;;5040704;28;20098;-65
2022/10/02 03:52:33;;;;;;;23.27;3.10;;;;;;;;;;5055840;28;20150;-64
2022/10/02 03:55:01;;;;;;;33.03;3.97;;;;;;;;;;5040057;28;20073;-65
2022/10/02 03:57:27;;;;;;;28.30;3.80;;;;;;;;;;5041018;28;20039;-65
2022/10/02 03:59:59;;;;;;;30.13;4.45;;;;;;;;;;5055606;28;20101;-66
2022/10/02 04:02:28;;;;;;;22.80;3.75;;;;;;;;;;5040403;28;20069;-66
2022/10/02 04:05:04;;;;;;;24.45;3.83;;;;;;;;;;5040250;28;20528;-65
2022/10/02 04:07:36;;;;;;;25.98;4.60;;;;;;;;;;5042149;28;20063;-65
2022/10/02 04:10:11;;;;;;;30.05;4.40;;;;;;;;;;5040945;28;20047;-65
2022/10/02 04:12:39;;;;;;;26.02;3.92;;;;;;;;;;5039727;28;20824;-65
2022/10/02 04:15:07;;;;;;;22.02;4.13;;;;;;;;;;5040952;28;20037;-64
2022/10/02 04:17:37;;;;;;;22.35;3.47;;;;;;;;;;5041288;28;20043;-66
2022/10/02 04:20:08;;;;;;;20.85;3.85;;;;;;;;;;5039770;28;20032;-66
2022/10/02 04:22:34;;;;;;;20.27;3.65;;;;;;;;;;5039082;28;20043;-65
2022/10/02 04:24:59;;;;;;;26.92;3.97;;;;;;;;;;5039916;28;20044;-65
2022/10/02 04:27:37;;;;;;;25.63;3.78;;;;;;;;;;5039639;28;20042;-65
2022/10/02 04:30:08;;;;;;;22.67;4.25;;;;;;;;;;5039826;28;20760;-66
2022/10/02 04:32:36;;;;;;;26.40;4.10;;;;;;;;;;5027924;28;20398;-65
2022/10/02 04:35:16;;;;;;;24.33;3.95;;;;;;;;;;5040365;28;20039;-65
2022/10/02 04:38:13;;;;;;;26.60;4.18;;;;;;;;;;5041566;28;20037;-66
2022/10/02 04:40:49;;;;;;;25.02;3.97;;;;;;;;;;5021257;28;20032;-65
2022/10/02 04:43:26;;;;;;;26.65;3.95;;;;;;;;;;5020318;28;20048;-66
2022/10/02 04:46:18;;;;;;;21.98;3.75;;;;;;;;;;5014389;28;20141;-66
2022/10/02 04:48:43;;;;;;;25.48;3.75;;;;;;;;;;5042959;28;20040;-65
2022/10/02 04:51:08;;;;;;;21.17;4.20;;;;;;;;;;5057332;28;20036;-66
2022/10/02 04:53:34;;;;;;;26.65;4.03;;;;;;;;;;5028390;28;20855;-64
2022/10/02 04:56:17;;;;;;;34.78;4.60;;;;;;;;;;5043442;28;21142;-66
2022/10/02 04:58:45;;;;;;;26.52;5.28;;;;;;;;;;5035252;28;20052;-64
2022/10/02 05:01:10;;;;;;;23.63;3.70;;;;;;;;;;5041873;28;20100;-64
2022/10/02 05:03:59;;;;;;;24.67;4.35;;;;;;;;;;5043644;28;20846;-64
2022/10/02 05:06:33;;;;;;;25.73;3.97;;;;;;;;;;5043666;28;20105;-64
2022/10/02 05:09:02;;;;;;;27.70;3.70;;;;;;;;;;5042355;28;20059;-64
2022/10/02 05:11:46;;;;;;;22.67;3.65;;;;;;;;;;5042715;28;20146;-65
2022/10/02 05:14:14;;;;;;;24.02;3.75;;;;;;;;;;5011815;28;20025;-64
2022/10/02 05:16:45;;;;;;;18.83;3.55;;;;;;;;;;5039508;28;20109;-65
2022/10/02 05:19:17;;;;;;;21.10;3.67;;;;;;;;;;5040982;28;20671;-65
2022/10/02 05:21:57;;;;;;;25.75;3.70;;;;;;;;;;5041294;28;20032;-67
2022/10/02 05:24:41;;;;;;;29.88;4.90;;;;;;;;;;5040551;28;20800;-67
2022/10/02 05:27:20;;;;;;;28.80;5.05;;;;;;;;;;5056357;28;20716;-68
2022/10/02 05:30:04;;;;;;;25.48;4.40;;;;;;;;;;5032791;28;20039;-66
2022/10/02 05:32:29;;;;;;;28.92;4.28;;;;;;;;;;5039397;28;20819;-66
2022/10/02 05:35:01;;;;;;;29.95;4.75;;;;;;;;;;5040710;28;20129;-66
2022/10/02 05:37:27;;;;;;;;;;;;;;;;;;5045833;28;20676;-67
2022/10/02 05:39:59;;;;;;;27.65;3.67;;;;;;;;;;5042564;28;19951;-68
2022/10/02 05:42:32;;;;;;;27.17;4.00;;;;;;;;;;5021905;28;20309;-66
2022/10/02 05:45:17;;;;;;;22.35;4.03;;;;;;;;;;5003776;28;1114162;-67
2022/10/02 05:47:45;;;;;;;30.77;4.40;;;;;;;;;;5042544;28;20035;-68
2022/10/02 05:50:10;;;;;;;19.67;4.00;;;;;;;;;;5040890;28;20144;-68
2022/10/02 05:52:41;;;;;;;30.30;3.83;;;;;;;;;;5040176;28;20048;-67
2022/10/02 05:55:13;;;;;;;24.52;3.45;;;;;;;;;;5042061;28;20036;-66
2022/10/02 05:57:40;;;;;;;;;;;;;;;;;;5057718;28;20854;-66
2022/10/02 06:00:09;;;;;;;21.92;3.45;;;;;;;;;;5018231;28;19922;-67
2022/10/02 06:02:53;;;;;;;23.75;3.92;;;;;;;;;;5042697;28;20036;-67
2022/10/02 06:05:24;;;;;;;26.10;3.80;;;;;;;;;;5040989;28;20109;-67
2022/10/02 06:07:50;;;;;;;;;;;;;;;;;;5026437;28;20143;-66
2022/10/02 06:10:21;;;;;;;24.85;3.97;;;;;;;;;;5040657;28;19916;-67
2022/10/02 06:13:04;;;;;;;19.65;4.13;;;;;;;;;;5017348;28;20090;-67
2022/10/02 06:15:38;;;;;;;27.45;4.43;;;;;;;;;;5042763;28;20065;-67
2022/10/02 06:18:06;;;;;;;29.85;4.20;;;;;;;;;;5041406;28;20046;-63
2022/10/02 06:20:36;;;;;;;21.92;3.15;;;;;;;;;;5040951;28;20147;-64
2022/10/02 06:23:10;;;;;;;19.00;3.10;;;;;;;;;;5040835;28;20036;-64
2022/10/02 06:25:38;;;;;;;25.60;4.05;;;;;;;;;;5040524;28;20036;-63
2022/10/02 06:28:13;;;;;;;21.17;4.38;;;;;;;;;;5040861;28;20484;-63
2022/10/02 06:30:40;;;;;;;23.20;3.85;;;;;;;;;;5041512;28;20043;-63
2022/10/02 06:33:14;;;;;;;27.63;4.50;;;;;;;;;;5040146;28;20036;-63
2022/10/02 06:35:50;;;;;;;27.80;4.47;;;;;;;;;;5039495;28;20037;-63
2022/10/02 06:38:39;;;;;;;19.20;3.67;;;;;;;;;;5023047;28;20035;-63
2022/10/02 06:41:19;;;;;;;22.13;3.30;;;;;;;;;;5037791;28;20211;-63
2022/10/02 06:43:52;;;;;;;23.17;3.35;;;;;;;;;;5039630;28;20184;-64
2022/10/02 06:46:30;;;;;;;23.35;3.65;;;;;;;;;;5038928;28;20056;-63
2022/10/02 06:48:58;;;;;;;19.52;3.60;;;;;;;;;;5041237;28;20039;-63
2022/10/02 06:51:32;;;;;;;26.58;4.47;;;;;;;;;;5038938;28;20855;-63
2022/10/02 06:54:10;;;;;;;22.73;3.70;;;;;;;;;;5038584;28;20025;-63
2022/10/02 06:56:46;;;;;;;19.73;3.65;;;;;;;;;;5039975;28;20717;-64
2022/10/02 06:59:11;;;;;;;22.30;3.08;;;;;;;;;;5040794;28;20024;-63
2022/10/02 07:01:40;;;;;;;30.30;4.53;;;;;;;;;;5023259;28;20032;-63
2022/10/02 07:04:24;;;;;;;28.75;4.18;;;;;;;;;;5015266;28;20086;-64
2022/10/02 07:06:59;;;;;;;23.23;3.72;;;;;;;;;;5039826;28;20082;-64
2022/10/02 07:09:37;;;;;;;26.85;4.05;;;;;;;;;;5039715;28;20305;-64
2022/10/02 07:12:15;;;;;;;17.92;3.38;;;;;;;;;;5041902;28;20043;-63
2022/10/02 07:14:43;;;;;;;22.42;3.40;;;;;;;;;;5039501;28;20110;-63
2022/10/02 07:17:20;;;;;;;27.90;3.92;;;;;;;;;;5041157;28;20925;-63
2022/10/02 07:19:51;;;;;;;21.80;4.03;;;;;;;;;;5041068;28;20036;-64
2022/10/02 07:22:16;;;;;;;21.23;3.55;;;;;;;;;;5023361;28;20932;-65
2022/10/02 07:25:05;;;;;;;29.55;4.78;;;;;;;;;;5043122;28;20036;-65
2022/10/02 07:27:39;;;;;;;29.70;3.63;;;;;;;;;;5040943;28;20036;-63
2022/10/02 07:30:07;;;;;;;27.52;4.03;;;;;;;;;;5041882;28;20040;-63
2022/10/02 07:32:47;;;;;;;31.02;4.25;;;;;;;;;;5040136;28;20044;-64
2022/10/02 07:35:31;;;;;;;24.65;3.50;;;;;;;;;;5040461;28;20143;-64
2022/10/02 07:38:15;;;;;;;30.25;4.72;;;;;;;;;;5014668;28;20838;-64
2022/10/02 07:41:07;;;;;;;23.13;4.28;;;;;;;;;;5040505;28;20038;-65
2022/10/02 07:43:38;;;;;;;26.05;3.25;;;;;;;;;;5040594;28;20268;-65
2022/10/02 07:46:15;;;;;;;27.38;4.38;;;;;;;;;;5038740;28;20039;-64
2022/10/02 07:48:46;;;;;;;22.73;4.38;;;;;;;;;;5038037;28;20943;-64
2022/10/02 07:54:27;;;;;;;22.27;3.40;;;;;;;;;;5028871;28;20650;-64
2022/10/02 07:56:56;;;;;;;14.75;2.80;;;;;;;;;;5039885;28;20041;-64
2022/10/02 07:59:21;;;;;;;22.23;3.30;;;;;;;;;;5038405;28;21006;-65
2022/10/02 08:01:47;;;;;;;22.08;3.30;;;;;;;;;;5020745;28;20032;-65
2022/10/02 08:04:34;;;;;;;24.55;3.92;;;;;;;;;;5038394;28;20051;-65
2022/10/02 08:07:00;;;;;;;22.60;3.50;;;;;;;;;;5039360;28;20039;-63
2022/10/02 08:09:30;;;;;;;22.77;4.03;;;;;;;;;;5040019;28;20037;-65
2022/10/02 08:12:03;;;;;;;30.90;3.72;;;;;;;;;;5039090;28;20112;-65
2022/10/02 08:14:31;;;;;;;22.83;3.40;;;;;;;;;;5039806;28;20895;-64
2022/10/02 08:17:01;;;;;;;19.73;3.55;;;;;;;;;;5039553;28;20147;-65
2022/10/02 08:19:28;;;;;;;;;;;;;;;;;;5040506;28;21100;-63
2022/10/02 08:21:59;;;;;;;22.25;3.25;;;;;;;;;;5034287;28;19923;-64
2022/10/02 08:24:36;;;;;;;18.77;3.28;;;;;;;;;;5040301;28;20063;-65
2022/10/02 08:27:08;;;;;;;21.80;3.90;;;;;;;;;;5039798;28;20036;-64
2022/10/02 08:29:46;;;;;;;32.20;4.10;;;;;;;;;;5038815;28;20028;-66
2022/10/02 08:32:12;;;;;;;26.88;4.57;;;;;;;;;;5039389;28;20040;-64
2022/10/02 08:34:40;;;;;;;29.45;4.07;;;;;;;;;;5037880;28;20115;-64
2022/10/02 08:37:27;;;;;;;23.17;3.50;;;;;;;;;;5039761;28;20036;-63
2022/10/02 08:40:11;;;;;;;21.33;3.40;;;;;;;;;;5022295;28;20033;-64
2022/10/02 08:42:48;;;;;;;18.08;3.17;;;;;;;;;;5036341;28;20032;-65
2022/10/02 08:45:33;;;;;;;25.10;3.95;;;;;;;;;;5038485;28;20047;-63
2022/10/02 08:48:10;;;;;;;19.67;3.08;;;;;;;;;;5038904;28;20134;-64
2022/10/02 08:50:41;;;;;;;21.85;3.28;;;;;;;;;;5037068;28;20025;-62
2022/10/02 08:53:07;;;;;;;23.92;3.58;;;;;;;;;;5013712;28;20119;-63
2022/10/02 08:55:53;;;;;;;22.55;2.95;;;;;;;;;;5036765;28;20602;-63
2022/10/02 08:58:21;;;;;;;21.05;3.05;;;;;;;;;;5041585;28;20068;-63
2022/10/02 09:00:59;;;;;;;21.27;3.53;;;;;;;;;;5037773;28;20032;-63
2022/10/02 09:03:37;;;;;;;20.77;3.78;;;;;;;;;;5034870;28;20040;-65
2022/10/02 09:06:14;;;;;;;22.23;3.85;;;;;;;;;;5040134;28;20079;-65
2022/10/02 09:08:58;;;;;;;18.48;3.25;;;;;;;;;;5034591;28;20028;-63
2022/10/02 09:11:23;;;;;;;19.00;3.15;;;;;;;;;;5033928;28;20097;-66
2022/10/02 09:14:18;;;;;;;18.83;2.90;;;;;;;;;;5038427;28;20115;-65
2022/10/02 09:16:58;;;;;;;21.52;3.28;;;;;;;;;;4988423;28;20063;-66
2022/10/02 09:19:42;;;;;;;17.90;3.70;;;;;;;;;;5038883;28;20038;-69
2022/10/02 09:22:23;;;;;;;20.33;3.17;;;;;;;;;;5041362;28;20715;-66
2022/10/02 09:25:00;;;;;;;29.40;3.78;;;;;;;;;;5040373;28;20034;-67
2022/10/02 09:27:28;;;;;;;22.13;4.28;;;;;;;;;;5039640;28;20036;-66
2022/10/02 09:30:07;;;;;;;20.45;3.78;;;;;;;;;;5038424;28;20036;-64
2022/10/02 09:32:45;;;;;;;22.17;3.60;;;;;;;;;;5023571;28;20047;-67
2022/10/02 09:35:29;;;;;;;18.02;3.38;;;;;;;;;;5021044;28;20046;-64
2022/10/02 09:37:58;;;;;;;22.05;3.50;;;;;;;;;;5036428;28;20036;-64
2022/10/02 09:40:26;;;;;;;22.20;3.47;;;;;;;;;;5039514;28;20267;-64
2022/10/02 09:43:08;;;;;;;28.73;4.65;;;;;;;;;;5037697;28;20289;-64
2022/10/02 09:45:35;;;;;;;20.77;3.53;;;;;;;;;;5001271;28;20322;-64
2022/10/02 09:48:18;;;;;;;20.05;3.17;;;;;;;;;;5003322;28;20043;-64
2022/10/02 09:51:04;;;;;;;19.83;3.50;;;;;;;;;;4998068;28;20517;-63
2022/10/02 09:53:32;;;;;;;26.98;4.00;;;;;;;;;;4996675;28;20068;-63
2022/10/02 09:55:57;;;;;;;28.10;3.33;;;;;;;;;;4997888;28;20041;-65
2022/10/02 09:58:34;;;;;;;26.65;3.83;;;;;;;;;;4997950;28;20482;-65
2022/10/02 10:01:02;;;;;;;19.63;3.72;;;;;;;;;;4997865;28;20115;-63
2022/10/02 10:03:57;;;;;;;19.98;2.70;;;;;;;;;;4997016;28;20400;-65
2022/10/02 10:06:44;;;;;;;21.55;3.33;;;;;;;;;;4986953;28;20034;-65
2022/10/02 10:09:28;;;;;;;19.55;3.67;;;;;;;;;;5002115;28;21294;-64
2022/10/02 10:12:09;;;;;;;28.05;3.25;;;;;;;;;;5017604;28;20037;-64
2022/10/02 10:14:55;;;;;;;24.38;4.10;;;;;;;;;;5004474;28;20254;-65
2022/10/02 10:17:40;;;;;;;27.20;3.85;;;;;;;;;;5017231;28;20048;-64
2022/10/02 10:20:13;;;;;;;13.48;2.63;;;;;;;;;;5003959;28;20133;-63
2022/10/02 10:22:38;;;;;;;20.65;3.47;;;;;;;;;;5019201;28;20041;-64
2022/10/02 10:25:13;;;;;;;31.95;3.88;;;;;;;;;;5004634;28;20044;-63
2022/10/02 10:27:38;;;;;;;23.05;3.40;;;;;;;;;;5001678;28;20033;-64
2022/10/02 10:30:22;;;;;;;20.58;3.72;;;;;;;;;;5002394;28;20033;-64
2022/10/02 10:32:50;;;;;;;22.42;3.45;;;;;;;;;;5000864;28;20160;-64
2022/10/02 10:35:34;;;;;;;24.65;3.67;;;;;;;;;;5031005;28;20045;-62
2022/10/02 10:41:11;;;;;;;18.80;3.17;;;;;;;;;;5001585;28;20044;-63
2022/10/02 10:43:55;;;;;;;27.10;4.07;;;;;;;;;;5014815;28;20164;-63
2022/10/02 10:46:22;;;;;;;20.73;3.67;;;;;;;;;;5040060;28;20043;-64
2022/10/02 10:48:47;;;;;;;18.08;3.08;;;;;;;;;;5041342;28;21530;-63
2022/10/02 10:51:18;;;;;;;17.42;3.40;;;;;;;;;;5042983;28;20040;-63
2022/10/02 10:53:56;;;;;;;20.00;3.83;;;;;;;;;;5042529;28;20082;-64
2022/10/02 10:56:32;;;;;;;21.73;3.30;;;;;;;;;;5041952;28;20033;-63
2022/10/02 10:59:06;;;;;;;14.35;2.60;;;;;;;;;;5041662;28;20452;-64
2022/10/02 11:01:46;;;;;;;19.35;3.05;;;;;;;;;;5040679;28;20046;-64
2022/10/02 11:04:25;;;;;;;21.95;3.45;;;;;;;;;;5040498;28;20047;-64
2022/10/02 11:07:06;;;;;;;20.15;3.60;;;;;;;;;;5039960;28;20766;-63
2022/10/02 11:09:47;;;;;;;21.45;3.22;;;;;;;;;;5040650;28;20070;-62
2022/10/02 11:12:27;;;;;;;22.63;3.25;;;;;;;;;;5040676;28;20069;-64
2022/10/02 11:15:05;;;;;;;19.77;3.03;;;;;;;;;;5055467;28;20143;-64
2022/10/02 11:17:31;;;;;;;20.45;3.65;;;;;;;;;;5043884;28;20039;-64
2022/10/02 11:19:56;;;;;;;20.00;3.17;;;;;;;;;;5038957;28;20103;-63
2022/10/02 11:22:22;;;;;;;19.15;3.20;;;;;;;;;;5039069;28;20043;-64
2022/10/02 11:25:09;;;;;;;18.38;3.40;;;;;;;;;;5041515;28;20032;-63
2022/10/02 11:27:40;;;;;;;25.63;4.15;;;;;;;;;;5056548;28;21036;-63
2022/10/02 11:30:20;;;;;;;14.65;2.88;;;;;;;;;;5039190;28;20082;-62
2022/10/02 11:33:01;;;;;;;19.02;2.80;;;;;;;;;;5039579;28;20040;-63
2022/10/02 11:35:26;;;;;;;21.38;3.03;;;;;;;;;;5037955;28;20081;-62
2022/10/02 11:38:10;;;;;;;19.20;3.15;;;;;;;;;;5037980;28;20040;-62
2022/10/02 11:40:43;;;;;;;19.75;3.20;;;;;;;;;;5037391;28;20032;-63
2022/10/02 11:43:14;;;;;;;13.43;2.60;;;;;;;;;;5038163;28;20032;-63
2022/10/02 11:45:46;;;;;;;21.27;3.50;;;;;;;;;;5037406;28;20039;-62
2022/10/02 11:48:32;;;;;;;17.15;2.90;;;;;;;;;;5038065;28;20082;-63
2022/10/02 11:50:57;;;;;;;20.13;3.72;;;;;;;;;;5013103;28;20127;-61
2022/10/02 11:53:25;;;;;;;20.33;3.05;;;;;;;;;;5038215;28;20047;-61
2022/10/02 11:56:10;;;;;;;20.92;4.07;;;;;;;;;;5012569;28;20025;-64
2022/10/02 11:58:44;;;;;;;22.65;3.30;;;;;;;;;;5038845;28;20064;-62
2022/10/02 12:01:28;;;;;;;20.38;3.42;;;;;;;;;;5038747;28;20028;-63
2022/10/02 12:04:21;;;;;;;18.17;3.25;;;;;;;;;;5035356;28;20032;-63
2022/10/02 12:06:55;;;;;;;18.48;2.80;;;;;;;;;;5035684;28;20119;-63
2022/10/02 12:09:26;;;;;;;16.42;3.10;;;;;;;;;;5038646;28;22317;-62
2022/10/02 12:11:55;;;;;;;25.50;3.85;;;;;;;;;;5038735;28;20905;-62
2022/10/02 12:14:25;;;;;;;22.85;3.72;;;;;;;;;;5037429;28;20132;-63
2022/10/02 12:17:12;;;;;;;24.50;3.88;;;;;;;;;;5037089;28;20157;-63
2022/10/02 12:28:56;;;;;;;23.35;3.80;;;;;;;;;;5038302;28;20041;-64
2022/10/02 12:31:44;;;;;;;17.15;3.55;;;;;;;;;;5037146;28;20546;-63
2022/10/02 12:34:18;;;;;;;16.10;2.78;;;;;;;;;;5035225;28;20086;-63
2022/10/02 12:36:57;;;;;;;18.30;3.22;;;;;;;;;;5033211;28;20201;-62
2022/10/02 12:39:36;;;;;;;20.83;3.30;;;;;;;;;;5026285;28;20047;-63
2022/10/02 12:42:01;;;;;;;27.60;4.25;;;;;;;;;;5032462;28;20028;-62
2022/10/02 12:44:36;;;;;;;17.80;3.22;;;;;;;;;;5013971;28;20087;-64
2022/10/02 12:47:14;;;;;;;24.35;3.67;;;;;;;;;;5033660;28;20024;-64
2022/10/02 12:49:57;;;;;;;22.35;3.65;;;;;;;;;;5047025;28;20734;-65
2022/10/02 12:52:42;;;;;;;17.52;3.33;;;;;;;;;;5033278;28;20068;-63
2022/10/02 12:55:26;;;;;;;24.17;3.75;;;;;;;;;;5031014;28;20143;-62
2022/10/02 12:58:16;;;;;;;17.15;3.08;;;;;;;;;;5032729;28;21861;-62
2022/10/02 13:01:00;;;;;;;17.95;3.08;;;;;;;;;;5023820;28;20181;-63
2022/10/02 13:03:45;;;;;;;23.92;3.42;;;;;;;;;;5033024;28;20752;-62
2022/10/02 13:06:28;;;;;;;17.88;2.50;;;;;;;;;;5034635;28;20051;-63
2022/10/02 13:08:53;;;;;;;19.67;2.55;;;;;;;;;;5035971;28;20591;-62
2022/10/02 13:11:37;;;;;;;16.95;3.25;;;;;;;;;;5040028;28;20058;-63
2022/10/02 13:14:25;;;;;;;20.80;3.45;;;;;;;;;;5041846;28;20122;-62
2022/10/02 13:16:57;;;;;;;22.55;3.58;;;;;;;;;;5030256;28;20060;-62
2022/10/02 13:19:36;;;;;;;16.95;2.67;;;;;;;;;;5023780;28;20041;-63
2022/10/02 13:22:08;;;;;;;18.65;3.45;;;;;;;;;;5039517;28;20063;-63
2022/10/02 13:24:34;;;;;;;;;;;;;;;;;;5017254;28;20046;-62
2022/10/02 13:27:02;;;;;;;18.80;3.07;;;;;;;;;;5043047;28;19920;-62
2022/10/02 13:29:42;;;;;;;21.50;3.45;;;;;;;;;;5040057;28;21511;-63
2022/10/02 13:32:20;;;;;;;15.18;2.97;;;;;;;;;;5041081;28;20105;-64
2022/10/02 13:34:45;;;;;;;23.30;3.08;;;;;;;;;;5042122;28;20036;-63
2022/10/02 13:37:18;;;;;;;16.83;3.15;;;;;;;;;;5041423;28;20807;-64
2022/10/02 13:40:02;;;;;;;14.70;2.40;;;;;;;;;;5057096;28;20037;-63
2022/10/02 13:42:41;;;;;;;16.85;2.75;;;;;;;;;;5039316;28;20029;-64
2022/10/02 13:45:19;;;;;;;17.38;3.15;;;;;;;;;;5028817;28;20881;-62
2022/10/02 13:48:04;;;;;;;18.90;2.90;;;;;;;;;;5040417;28;20036;-62
2022/10/02 13:50:29;;;;;;;22.60;3.15;;;;;;;;;;5040931;28;20109;-63
2022/10/02 13:53:03;;;;;;;18.25;3.40;;;;;;;;;;5040119;28;20151;-62
2022/10/02 13:55:34;;;;;;;15.77;2.67;;;;;;;;;;5039971;28;20040;-62
2022/10/02 13:58:18;;;;;;;17.25;2.92;;;;;;;;;;5040348;28;20090;-63
2022/10/02 14:00:49;;;;;;;21.05;2.83;;;;;;;;;;5040032;28;20032;-62
2022/10/02 14:03:20;;;;;;;25.02;3.58;;;;;;;;;;5041626;28;20042;-62
2022/10/02 14:05:52;;;;;;;27.98;3.67;;;;;;;;;;5040747;28;20106;-63
2022/10/02 14:08:32;;;;;;;18.73;3.58;;;;;;;;;;5039242;28;21067;-64
2022/10/02 14:11:18;;;;;;;17.35;3.13;;;;;;;;;;5040038;28;20036;-62
2022/10/02 14:13:43;;;;;;;18.13;2.90;;;;;;;;;;5039239;28;20047;-63
2022/10/02 14:16:26;;;;;;;18.35;2.83;;;;;;;;;;5040612;28;22386;-63
2022/10/02 14:19:04;;;;;;;20.95;3.53;;;;;;;;;;5039222;28;20039;-62
2022/10/02 14:21:37;;;;;;;20.38;3.30;;;;;;;;;;5023346;28;20032;-63
2022/10/02 14:24:21;;;;;;;19.42;2.75;;;;;;;;;;5040891;28;20036;-62
2022/10/02 14:26:52;;;;;;;19.48;2.80;;;;;;;;;;5039220;28;20059;-63
2022/10/02 14:29:24;;;;;;;18.25;3.00;;;;;;;;;;5055661;28;20140;-64
2022/10/02 14:31:50;;;;;;;19.13;3.00;;;;;;;;;;5022262;28;21136;-63
2022/10/02 14:34:26;;;;;;;15.82;3.78;;;;;;;;;;5036821;28;20024;-63
2022/10/02 14:37:02;;;;;;;17.42;2.95;;;;;;;;;;5040097;28;20028;-62
2022/10/02 14:39:27;;;;;;;17.40;3.40;;;;;;;;;;5041009;28;20028;-64
2022/10/02 14:41:54;;;;;;;24.02;3.22;;;;;;;;;;5040518;28;20797;-62
2022/10/02 14:44:27;;;;;;;14.75;2.58;;;;;;;;;;5040033;28;21098;-64
2022/10/02 14:47:01;;;;;;;19.55;3.00;;;;;;;;;;5035821;28;20117;-61
2022/10/02 14:49:46;;;;;;;21.58;3.60;;;;;;;;;;5039904;28;20032;-62
2022/10/02 14:52:14;;;;;;;24.25;3.63;;;;;;;;;;5039400;28;20048;-62
2022/10/02 14:55:03;;;;;;;24.02;3.58;;;;;;;;;;5039385;28;20028;-63
2022/10/02 14:57:46;;;;;;;19.02;3.47;;;;;;;;;;5029937;28;20233;-63
2022/10/02 15:00:23;;;;;;;17.10;2.55;;;;;;;;;;5037790;28;20798;-63
2022/10/02 15:03:09;;;;;;;20.67;2.92;;;;;;;;;;5038940;28;21030;-62
2022/10/02 15:05:35;;;;;;;18.85;2.92;;;;;;;;;;5038509;28;20090;-63
2022/10/02 15:08:03;;;;;;;21.40;2.95;;;;;;;;;;5039933;28;20032;-65
2022/10/02 15:10:32;;;;;;;17.17;2.58;;;;;;;;;;5038651;28;20175;-63
2022/10/02 15:12:58;;;;;;;19.38;3.03;;;;;;;;;;5038449;28;20834;-62
2022/10/02 15:15:32;;;;;;;19.25;3.60;;;;;;;;;;5036782;28;20036;-62
2022/10/02 15:18:16;;;;;;;17.75;3.00;;;;;;;;;;5029526;28;20133;-62
2022/10/02 15:20:59;;;;;;;22.30;3.10;;;;;;;;;;5034375;28;20516;-63
2022/10/02 15:23:31;;;;;;;20.10;3.20;;;;;;;;;;5034827;28;20537;-62
2022/10/02 15:26:03;;;;;;;15.27;2.30;;;;;;;;;;5035478;28;20131;-63
2022/10/02 15:28:28;;;;;;;18.40;3.00;;;;;;;;;;5018760;28;20078;-63